sim
Sign-in with your pilot id or email,
or register
Callsign
Passwort

Schedule Details

Flight Number: OEO7284
Departure: Leipzig Halle Airport (EDDP) at 10:30
Arrival: Fuerteventura Airport (GCFV) at 15:55

Weather Information
Getting current METAR information for EDDP 160250Z 17012KT CAVOK 02/M02 Q1028 NOSIG
Getting current METAR information for GCFV 160230Z AUTO 28005KT 9999 NCD 13/10 Q1018

Schedule Frequency

Route Map